Time;durP1;ratioP1;P1;durP2;ratioP2;P2;SDS_P1;SDS_P2;PMS_P1;PMS_P2;Temp;Humidity;BMP_temperature;BMP_pressure;BME280_temperature;BME280_humidity;BME280_pressure;Samples;Min_cycle;Max_cycle;Signal;HPM_P1;HPM_P2
2024/03/21 00:00:35;;;;;;;9.43;5.80;;;;;;;;;;5073796;28;20035;-70
2024/03/21 00:03:02;;;;;;;7.85;5.72;;;;;;;;;;5093989;28;20117;-70
2024/03/21 00:05:30;;;;;;;11.30;6.47;;;;;;;;;;5094288;28;20025;-70
2024/03/21 00:07:56;;;;;;;9.57;6.60;;;;;;;;;;5094390;28;20016;-71
2024/03/21 00:10:22;;;;;;;9.63;5.38;;;;;;;;;;5094142;28;20051;-71
2024/03/21 00:12:48;;;;;;;13.75;5.90;;;;;;;;;;5094128;28;20024;-71
2024/03/21 00:15:15;;;;;;;10.88;6.47;;;;;;;;;;5091848;28;20030;-70
2024/03/21 00:17:41;;;;;;;7.82;6.00;;;;;;;;;;5094200;28;20024;-70
2024/03/21 00:20:11;;;;;;;8.75;5.93;;;;;;;;;;5075651;28;20035;-71
2024/03/21 00:22:38;;;;;;;12.45;6.53;;;;;;;;;;5093692;28;20008;-71
2024/03/21 00:25:04;;;;;;;9.10;5.95;;;;;;;;;;5094235;28;20024;-71
2024/03/21 00:27:34;;;;;;;7.70;6.32;;;;;;;;;;5093771;28;20032;-71
2024/03/21 00:30:01;;;;;;;8.43;7.15;;;;;;;;;;5072157;28;20025;-71
2024/03/21 00:32:27;;;;;;;13.60;7.78;;;;;;;;;;5089466;28;20074;-69
2024/03/21 00:34:54;;;;;;;13.73;8.13;;;;;;;;;;5075337;28;20398;-69
2024/03/21 00:37:21;;;;;;;12.68;7.22;;;;;;;;;;5093878;28;20048;-71
2024/03/21 00:39:48;;;;;;;15.30;7.32;;;;;;;;;;5093920;28;20017;-71
2024/03/21 00:42:15;;;;;;;11.65;7.75;;;;;;;;;;5074618;28;20077;-70
2024/03/21 00:44:41;;;;;;;9.65;7.25;;;;;;;;;;5093409;28;20016;-69
2024/03/21 00:47:07;;;;;;;12.23;7.68;;;;;;;;;;5092252;28;20081;-70
2024/03/21 00:49:33;;;;;;;10.25;7.30;;;;;;;;;;5071814;28;20436;-71
2024/03/21 00:51:59;;;;;;;12.65;7.70;;;;;;;;;;5060065;28;20479;-71
2024/03/21 00:54:26;;;;;;;11.18;7.57;;;;;;;;;;5064205;28;20038;-70
2024/03/21 00:56:52;;;;;;;11.02;7.95;;;;;;;;;;5075839;28;20028;-71
2024/03/21 00:59:21;;;;;;;12.07;8.52;;;;;;;;;;5074830;28;20111;-70
2024/03/21 01:01:47;;;;;;;12.85;7.70;;;;;;;;;;5094155;28;20436;-70
2024/03/21 01:04:13;;;;;;;13.48;7.13;;;;;;;;;;5095439;28;20449;-71
2024/03/21 01:06:39;;;;;;;13.30;7.20;;;;;;;;;;5094345;28;20051;-71
2024/03/21 01:09:05;;;;;;;10.70;7.10;;;;;;;;;;5093191;28;20471;-71
2024/03/21 01:11:31;;;;;;;16.50;7.95;;;;;;;;;;5074509;28;20127;-70
2024/03/21 01:13:57;;;;;;;8.88;7.07;;;;;;;;;;5093005;28;20020;-71
2024/03/21 01:16:23;;;;;;;10.57;7.38;;;;;;;;;;5092024;28;20111;-71
2024/03/21 01:18:49;;;;;;;11.55;7.90;;;;;;;;;;5091564;28;20060;-72
2024/03/21 01:21:16;;;;;;;10.27;7.70;;;;;;;;;;5092545;28;20036;-72
2024/03/21 01:23:42;;;;;;;12.77;8.10;;;;;;;;;;5093375;28;20048;-70
2024/03/21 01:26:08;;;;;;;11.93;7.90;;;;;;;;;;5093652;28;20521;-72
2024/03/21 01:28:34;;;;;;;9.68;7.72;;;;;;;;;;5093855;28;20364;-72
2024/03/21 01:31:06;;;;;;;12.23;7.50;;;;;;;;;;5091907;28;20215;-71
2024/03/21 01:33:33;;;;;;;12.10;8.95;;;;;;;;;;5074979;28;20059;-72
2024/03/21 01:35:59;;;;;;;10.23;8.07;;;;;;;;;;5091755;28;20031;-70
2024/03/21 01:38:25;;;;;;;11.43;8.18;;;;;;;;;;5092707;28;20032;-71
2024/03/21 01:40:51;;;;;;;11.27;7.70;;;;;;;;;;5092380;28;20473;-70
2024/03/21 01:43:21;;;;;;;11.38;7.72;;;;;;;;;;5092324;28;20028;-70
2024/03/21 01:46:08;;;;;;;11.10;7.90;;;;;;;;;;5079010;28;20478;-70
2024/03/21 01:48:34;;;;;;;10.40;8.60;;;;;;;;;;5085462;28;20044;-69
2024/03/21 01:51:00;;;;;;;30.10;8.30;;;;;;;;;;5091782;28;20028;-71
2024/03/21 01:53:28;;;;;;;10.98;7.97;;;;;;;;;;5077418;28;20039;-69
2024/03/21 01:55:54;;;;;;;16.00;9.65;;;;;;;;;;5072242;28;20497;-70
2024/03/21 01:58:20;;;;;;;10.82;8.93;;;;;;;;;;5072129;28;20060;-71
2024/03/21 02:00:47;;;;;;;12.32;8.00;;;;;;;;;;5072119;28;20031;-70
2024/03/21 02:03:14;;;;;;;11.15;7.80;;;;;;;;;;5091969;28;20030;-70
2024/03/21 02:05:40;;;;;;;16.02;8.57;;;;;;;;;;5073841;28;20024;-71
2024/03/21 02:08:07;;;;;;;11.60;8.93;;;;;;;;;;5072205;28;20136;-71
2024/03/21 02:10:34;;;;;;;10.60;8.32;;;;;;;;;;5092120;28;20034;-70
2024/03/21 02:13:00;;;;;;;10.15;8.15;;;;;;;;;;5091731;28;20394;-70
2024/03/21 02:15:26;;;;;;;12.20;7.72;;;;;;;;;;5091772;28;20038;-71
2024/03/21 02:17:52;;;;;;;11.27;7.90;;;;;;;;;;5073533;28;20086;-71
2024/03/21 02:20:18;;;;;;;13.75;8.07;;;;;;;;;;5090523;28;20575;-69
2024/03/21 02:22:44;;;;;;;12.10;8.70;;;;;;;;;;5091245;28;20383;-70
2024/03/21 02:25:11;;;;;;;10.07;7.78;;;;;;;;;;5072596;28;20031;-71
2024/03/21 02:27:38;;;;;;;20.65;10.05;;;;;;;;;;5091875;28;20036;-71
2024/03/21 02:30:04;;;;;;;11.55;8.63;;;;;;;;;;5091481;28;20028;-71
2024/03/21 02:32:30;;;;;;;11.43;8.35;;;;;;;;;;5091413;28;20377;-71
2024/03/21 02:34:57;;;;;;;12.57;8.88;;;;;;;;;;5091453;28;20383;-71
2024/03/21 02:37:23;;;;;;;10.27;8.05;;;;;;;;;;5091233;28;20028;-71
2024/03/21 02:39:52;;;;;;;11.32;8.38;;;;;;;;;;5090456;28;20070;-71
2024/03/21 02:42:21;;;;;;;10.25;8.30;;;;;;;;;;5089988;28;20090;-70
2024/03/21 02:44:48;;;;;;;11.45;8.38;;;;;;;;;;5090870;28;20024;-71
2024/03/21 02:47:14;;;;;;;11.52;8.07;;;;;;;;;;5072992;28;20035;-70
2024/03/21 02:49:40;;;;;;;10.35;8.32;;;;;;;;;;5091102;28;20036;-70
2024/03/21 02:52:07;;;;;;;10.82;7.70;;;;;;;;;;5090338;28;20394;-71
2024/03/21 02:54:33;;;;;;;11.77;7.38;;;;;;;;;;5073304;28;20398;-70
2024/03/21 02:57:00;;;;;;;9.07;7.40;;;;;;;;;;5091714;28;20031;-70
2024/03/21 02:59:26;;;;;;;10.25;7.55;;;;;;;;;;5088829;28;20398;-70
2024/03/21 03:01:52;;;;;;;10.60;7.65;;;;;;;;;;5090104;28;20032;-71
2024/03/21 03:04:18;;;;;;;9.00;7.88;;;;;;;;;;5072670;28;20452;-70
2024/03/21 03:06:45;;;;;;;8.88;7.03;;;;;;;;;;5081419;28;20020;-70
2024/03/21 03:09:11;;;;;;;9.35;7.75;;;;;;;;;;5091238;28;20308;-70
2024/03/21 03:11:37;;;;;;;12.02;7.63;;;;;;;;;;5071865;28;20361;-70
2024/03/21 03:14:04;;;;;;;12.73;7.18;;;;;;;;;;5070225;28;20093;-70
2024/03/21 03:16:30;;;;;;;13.43;7.53;;;;;;;;;;5071252;28;20083;-71
2024/03/21 03:18:56;;;;;;;13.00;8.25;;;;;;;;;;5077061;28;20458;-70
2024/03/21 03:21:22;;;;;;;9.02;6.85;;;;;;;;;;5090166;28;20744;-70
2024/03/21 03:23:48;;;;;;;7.65;6.75;;;;;;;;;;5090679;28;20081;-71
2024/03/21 03:26:14;;;;;;;11.05;7.70;;;;;;;;;;5091007;28;20028;-71
2024/03/21 03:28:40;;;;;;;8.80;7.18;;;;;;;;;;5090064;28;20513;-70
2024/03/21 03:31:06;;;;;;;13.93;7.25;;;;;;;;;;5083480;28;20391;-71
2024/03/21 03:36:17;;;;;;;11.13;7.60;;;;;;;;;;5077040;28;20113;-70
2024/03/21 03:38:43;;;;;;;10.48;7.65;;;;;;;;;;5090567;28;20031;-71
2024/03/21 03:41:09;;;;;;;10.48;7.40;;;;;;;;;;5089884;28;20024;-70
2024/03/21 03:43:35;;;;;;;9.23;7.30;;;;;;;;;;5090910;28;20025;-70
2024/03/21 03:46:01;;;;;;;13.60;7.13;;;;;;;;;;5090465;28;20024;-69
2024/03/21 03:48:27;;;;;;;9.13;7.18;;;;;;;;;;5088735;28;20505;-70
2024/03/21 03:50:53;;;;;;;7.90;6.25;;;;;;;;;;5089862;28;20056;-70
2024/03/21 03:53:20;;;;;;;12.18;7.95;;;;;;;;;;5090484;28;20031;-70
2024/03/21 03:55:46;;;;;;;12.52;7.97;;;;;;;;;;5090068;28;20090;-71
2024/03/21 03:58:12;;;;;;;10.52;6.70;;;;;;;;;;5090344;28;20099;-71
2024/03/21 04:00:38;;;;;;;10.63;7.53;;;;;;;;;;5089937;28;20024;-71
2024/03/21 04:03:04;;;;;;;14.82;8.32;;;;;;;;;;5071277;28;20016;-70
2024/03/21 04:05:30;;;;;;;11.77;9.60;;;;;;;;;;5070593;28;20502;-70
2024/03/21 04:07:56;;;;;;;11.75;7.57;;;;;;;;;;5090814;28;20066;-70
2024/03/21 04:10:22;;;;;;;14.30;8.20;;;;;;;;;;5090128;28;20051;-70
2024/03/21 04:12:48;;;;;;;10.85;8.30;;;;;;;;;;5090743;28;20020;-71
2024/03/21 04:15:14;;;;;;;14.13;9.23;;;;;;;;;;5079187;28;20074;-70
2024/03/21 04:17:40;;;;;;;11.45;9.10;;;;;;;;;;5052234;28;20033;-70
2024/03/21 04:20:07;;;;;;;12.93;8.93;;;;;;;;;;5051678;28;20033;-70
2024/03/21 04:22:33;;;;;;;10.90;7.95;;;;;;;;;;5069705;28;20013;-70
2024/03/21 04:24:59;;;;;;;15.05;8.70;;;;;;;;;;5069966;28;20075;-70
2024/03/21 04:27:25;;;;;;;11.65;8.70;;;;;;;;;;5069958;28;20021;-69
2024/03/21 04:29:51;;;;;;;12.68;8.55;;;;;;;;;;5084567;28;20035;-70
2024/03/21 04:32:18;;;;;;;15.65;8.88;;;;;;;;;;5078782;28;20421;-70
2024/03/21 04:34:44;;;;;;;11.18;8.23;;;;;;;;;;5090531;28;20028;-70
2024/03/21 04:37:14;;;;;;;14.10;8.85;;;;;;;;;;5091007;28;20036;-70
2024/03/21 04:39:40;;;;;;;18.80;8.43;;;;;;;;;;5090210;28;20094;-70
2024/03/21 04:42:06;;;;;;;14.48;9.15;;;;;;;;;;5089456;28;20099;-71
2024/03/21 04:44:32;;;;;;;11.75;8.57;;;;;;;;;;5091154;28;20023;-70
2024/03/21 04:46:58;;;;;;;13.32;8.20;;;;;;;;;;5074821;28;20028;-70
2024/03/21 04:49:24;;;;;;;14.93;7.70;;;;;;;;;;5092614;28;20024;-70
2024/03/21 04:51:50;;;;;;;11.52;8.48;;;;;;;;;;5081110;28;20024;-70
2024/03/21 04:54:19;;;;;;;11.02;7.60;;;;;;;;;;5054669;28;20443;-70
2024/03/21 04:56:45;;;;;;;14.02;8.90;;;;;;;;;;5072952;28;20036;-70
2024/03/21 04:59:11;;;;;;;14.57;8.88;;;;;;;;;;5063530;28;20118;-71
2024/03/21 05:01:37;;;;;;;11.43;8.73;;;;;;;;;;5067369;28;20116;-70
2024/03/21 05:04:05;;;;;;;9.75;8.45;;;;;;;;;;5073404;28;20028;-70
2024/03/21 05:06:31;;;;;;;13.20;8.35;;;;;;;;;;5088457;28;20111;-71
2024/03/21 05:08:57;;;;;;;10.88;7.13;;;;;;;;;;5093454;28;20028;-71
2024/03/21 05:11:26;;;;;;;13.77;7.78;;;;;;;;;;5074889;28;20466;-70
2024/03/21 05:13:52;;;;;;;10.95;6.72;;;;;;;;;;5075204;28;20039;-70
2024/03/21 05:16:18;;;;;;;13.60;7.13;;;;;;;;;;5064503;28;20028;-70
2024/03/21 05:18:44;;;;;;;10.95;7.13;;;;;;;;;;5059087;28;20453;-70
2024/03/21 05:21:11;;;;;;;13.25;6.82;;;;;;;;;;5092366;28;20561;-70
2024/03/21 05:23:37;;;;;;;12.98;6.78;;;;;;;;;;5093355;28;20063;-70
2024/03/21 05:26:03;;;;;;;10.32;7.22;;;;;;;;;;5093107;28;20086;-70
2024/03/21 05:28:29;;;;;;;10.35;6.82;;;;;;;;;;5093053;28;20043;-71
2024/03/21 05:30:55;;;;;;;10.23;6.40;;;;;;;;;;5072597;28;20032;-70
2024/03/21 05:33:21;;;;;;;9.50;6.07;;;;;;;;;;5086066;28;20144;-71
2024/03/21 05:35:47;;;;;;;9.23;7.07;;;;;;;;;;5083795;28;20350;-69
2024/03/21 05:38:14;;;;;;;11.65;7.25;;;;;;;;;;5084044;28;20059;-71
2024/03/21 05:40:41;;;;;;;13.02;6.90;;;;;;;;;;5085980;28;20102;-71
2024/03/21 05:43:08;;;;;;;7.65;6.25;;;;;;;;;;5053693;28;20472;-70
2024/03/21 05:45:34;;;;;;;11.25;6.43;;;;;;;;;;5087788;28;20243;-71
2024/03/21 05:48:00;;;;;;;10.30;6.10;;;;;;;;;;5068971;28;20029;-71
2024/03/21 05:50:26;;;;;;;14.82;6.72;;;;;;;;;;5072398;28;20028;-70
2024/03/21 05:52:52;;;;;;;8.90;5.72;;;;;;;;;;5078369;28;20054;-70
2024/03/21 05:55:18;;;;;;;10.05;5.97;;;;;;;;;;5092151;28;20073;-71
2024/03/21 05:57:44;;;;;;;8.98;6.35;;;;;;;;;;5092211;28;20173;-70
2024/03/21 06:00:16;;;;;;;12.02;6.30;;;;;;;;;;5071460;28;20028;-70
2024/03/21 06:02:42;;;;;;;12.50;6.95;;;;;;;;;;5089627;28;20438;-70
2024/03/21 06:05:08;;;;;;;13.25;6.97;;;;;;;;;;5091856;28;20052;-70
2024/03/21 06:07:34;;;;;;;13.38;7.25;;;;;;;;;;5073914;28;20020;-69
2024/03/21 06:10:00;;;;;;;15.65;7.68;;;;;;;;;;5059114;28;20083;-69
2024/03/21 06:12:27;;;;;;;14.23;7.50;;;;;;;;;;5071362;28;20009;-70
2024/03/21 06:14:53;;;;;;;8.52;6.78;;;;;;;;;;5067329;28;20028;-70
2024/03/21 06:17:19;;;;;;;12.40;7.53;;;;;;;;;;5075099;28;20036;-72
2024/03/21 06:19:45;;;;;;;11.15;7.85;;;;;;;;;;5080226;28;20031;-71
2024/03/21 06:22:11;;;;;;;13.73;6.90;;;;;;;;;;5079528;28;20459;-72
2024/03/21 06:24:37;;;;;;;12.77;7.53;;;;;;;;;;5077977;28;20024;-70
2024/03/21 06:27:03;;;;;;;13.93;8.02;;;;;;;;;;5079004;28;20023;-70
2024/03/21 06:29:30;;;;;;;10.50;7.18;;;;;;;;;;5079893;28;20416;-68
2024/03/21 06:31:56;;;;;;;15.32;6.65;;;;;;;;;;5082958;28;20025;-69
2024/03/21 06:34:22;;;;;;;10.63;6.35;;;;;;;;;;5082509;28;20039;-67
2024/03/21 06:36:48;;;;;;;8.38;6.70;;;;;;;;;;5076847;28;20035;-68
2024/03/21 06:39:14;;;;;;;13.02;9.52;;;;;;;;;;5082498;28;20023;-72
2024/03/21 06:41:41;;;;;;;14.45;8.25;;;;;;;;;;5062469;28;20071;-70
2024/03/21 06:44:07;;;;;;;13.32;8.35;;;;;;;;;;5083247;28;20496;-71
2024/03/21 06:46:33;;;;;;;17.00;8.98;;;;;;;;;;5079961;28;20020;-71
2024/03/21 06:48:59;;;;;;;18.67;9.63;;;;;;;;;;5079526;28;20067;-70
2024/03/21 06:51:25;;;;;;;16.95;10.18;;;;;;;;;;5071470;28;20137;-70
2024/03/21 06:53:51;;;;;;;15.15;9.15;;;;;;;;;;5091828;22;20041;-69
2024/03/21 06:56:17;;;;;;;14.80;9.93;;;;;;;;;;5081133;28;20031;-71
2024/03/21 06:58:43;;;;;;;15.38;8.95;;;;;;;;;;5086668;28;20028;-68
2024/03/21 07:01:09;;;;;;;16.58;9.30;;;;;;;;;;5086074;28;20084;-70
2024/03/21 07:03:35;;;;;;;18.48;9.35;;;;;;;;;;5072395;28;20040;-68
2024/03/21 07:06:01;;;;;;;19.40;10.48;;;;;;;;;;5091149;28;20031;-70
2024/03/21 07:08:27;;;;;;;17.15;9.30;;;;;;;;;;5091818;28;20028;-70
2024/03/21 07:10:55;;;;;;;19.33;10.15;;;;;;;;;;5084644;28;20031;-70
2024/03/21 07:13:21;;;;;;;15.60;9.13;;;;;;;;;;5058221;28;20563;-70
2024/03/21 07:15:47;;;;;;;19.42;9.80;;;;;;;;;;5083832;28;20024;-70
2024/03/21 07:18:13;;;;;;;13.75;9.70;;;;;;;;;;5080782;28;20081;-70
2024/03/21 07:20:40;;;;;;;15.80;10.15;;;;;;;;;;5058178;28;20131;-70
2024/03/21 07:23:09;;;;;;;13.80;10.18;;;;;;;;;;5076485;28;20028;-70
2024/03/21 07:25:35;;;;;;;17.48;9.90;;;;;;;;;;5056048;28;20439;-69
2024/03/21 07:28:02;;;;;;;14.73;9.85;;;;;;;;;;5087141;28;20024;-69
2024/03/21 07:30:28;;;;;;;17.73;10.60;;;;;;;;;;5077675;28;20037;-70
2024/03/21 07:32:54;;;;;;;20.08;10.82;;;;;;;;;;5052902;28;20085;-70
2024/03/21 07:35:21;;;;;;;16.20;9.52;;;;;;;;;;5060379;28;20150;-70
2024/03/21 07:37:47;;;;;;;12.63;9.63;;;;;;;;;;5071434;28;20025;-69
2024/03/21 07:40:13;;;;;;;14.35;10.13;;;;;;;;;;5068116;28;20499;-69
2024/03/21 07:42:39;;;;;;;15.88;11.32;;;;;;;;;;5063301;28;20032;-70
2024/03/21 07:45:08;;;;;;;17.52;11.35;;;;;;;;;;5077131;28;20028;-71
2024/03/21 07:47:34;;;;;;;19.50;11.35;;;;;;;;;;5071501;28;20028;-71
2024/03/21 07:50:00;;;;;;;19.63;11.80;;;;;;;;;;5071801;28;20032;-70
2024/03/21 07:52:26;;;;;;;18.33;11.88;;;;;;;;;;5073349;28;20028;-69
2024/03/21 07:54:52;;;;;;;20.13;11.65;;;;;;;;;;5070646;28;20035;-69
2024/03/21 07:57:18;;;;;;;16.13;10.32;;;;;;;;;;5079807;28;20467;-70
2024/03/21 07:59:44;;;;;;;21.23;11.98;;;;;;;;;;5089674;28;20028;-70
2024/03/21 08:02:10;;;;;;;18.98;12.13;;;;;;;;;;5072357;28;20067;-69
2024/03/21 08:04:36;;;;;;;14.68;10.48;;;;;;;;;;5078303;28;20028;-70
2024/03/21 08:07:02;;;;;;;16.08;11.25;;;;;;;;;;5057617;28;20112;-71
2024/03/21 08:09:29;;;;;;;16.75;11.23;;;;;;;;;;5075238;28;20483;-71
2024/03/21 08:11:56;;;;;;;23.13;11.48;;;;;;;;;;5070301;28;20068;-70
2024/03/21 08:14:22;;;;;;;15.02;10.90;;;;;;;;;;5076584;28;20025;-71
2024/03/21 08:16:48;;;;;;;22.73;11.48;;;;;;;;;;5067346;28;20024;-70
2024/03/21 08:19:14;;;;;;;13.52;10.88;;;;;;;;;;5075511;28;20035;-70
2024/03/21 08:21:40;;;;;;;15.85;10.95;;;;;;;;;;5058899;28;20024;-70
2024/03/21 08:24:06;;;;;;;15.57;9.73;;;;;;;;;;5063063;28;20024;-67
2024/03/21 08:26:32;;;;;;;14.18;10.48;;;;;;;;;;5075149;28;20467;-68
2024/03/21 08:28:58;;;;;;;14.23;10.73;;;;;;;;;;5065864;28;20027;-67
2024/03/21 08:31:24;;;;;;;14.07;10.95;;;;;;;;;;5063003;28;20028;-67
2024/03/21 08:33:51;;;;;;;19.55;12.57;;;;;;;;;;5085829;28;20024;-67
2024/03/21 08:36:17;;;;;;;27.92;12.57;;;;;;;;;;5092968;28;20024;-68
2024/03/21 08:38:43;;;;;;;15.68;11.85;;;;;;;;;;5078051;28;20029;-68
2024/03/21 08:41:10;;;;;;;21.02;12.00;;;;;;;;;;5067804;28;20032;-68
2024/03/21 08:43:36;;;;;;;15.60;11.27;;;;;;;;;;5077971;28;20048;-68
2024/03/21 08:46:02;;;;;;;18.98;11.55;;;;;;;;;;5062060;28;20032;-68
2024/03/21 08:48:28;;;;;;;22.73;12.10;;;;;;;;;;5062760;28;20394;-70
2024/03/21 08:50:54;;;;;;;17.42;13.15;;;;;;;;;;5063412;28;20032;-71
2024/03/21 08:53:20;;;;;;;21.60;13.73;;;;;;;;;;5065151;28;20062;-71
2024/03/21 08:55:46;;;;;;;19.10;13.05;;;;;;;;;;5080861;28;20040;-71
2024/03/21 08:58:12;;;;;;;22.65;13.93;;;;;;;;;;5078013;28;20024;-71
2024/03/21 09:00:40;;;;;;;16.75;12.52;;;;;;;;;;5071882;28;20364;-71
2024/03/21 09:03:08;;;;;;;18.58;14.98;;;;;;;;;;5078428;28;20097;-71
2024/03/21 09:05:34;;;;;;;21.92;14.82;;;;;;;;;;5095893;28;20108;-71
2024/03/21 09:08:00;;;;;;;23.23;14.90;;;;;;;;;;5064048;28;20020;-71
2024/03/21 09:10:26;;;;;;;25.50;15.45;;;;;;;;;;5075396;28;20198;-71
2024/03/21 09:12:52;;;;;;;19.98;15.85;;;;;;;;;;5074873;28;20039;-72
2024/03/21 09:15:18;;;;;;;33.97;17.38;;;;;;;;;;5092588;28;20032;-71
2024/03/21 09:17:45;;;;;;;23.60;16.08;;;;;;;;;;5086106;28;20043;-73
2024/03/21 09:20:11;;;;;;;21.10;16.73;;;;;;;;;;5081398;28;20100;-72
2024/03/21 09:22:38;;;;;;;21.02;15.88;;;;;;;;;;5075291;28;20364;-72
2024/03/21 09:25:04;;;;;;;19.88;15.32;;;;;;;;;;5079543;28;20031;-71
2024/03/21 09:27:30;;;;;;;22.25;16.27;;;;;;;;;;5085097;28;20032;-71
2024/03/21 09:29:56;;;;;;;19.80;15.63;;;;;;;;;;5057322;28;20032;-71
2024/03/21 09:32:23;;;;;;;22.52;16.00;;;;;;;;;;5088961;28;20035;-72
2024/03/21 09:34:52;;;;;;;26.13;17.13;;;;;;;;;;5076320;28;20667;-76
2024/03/21 09:37:18;;;;;;;28.08;21.35;;;;;;;;;;5074889;28;20481;-74
2024/03/21 09:39:45;;;;;;;25.05;18.83;;;;;;;;;;5081798;28;20024;-76
2024/03/21 09:42:17;;;;;;;28.60;20.98;;;;;;;;;;5084839;28;20564;-74
2024/03/21 09:44:48;;;;;;;29.05;21.00;;;;;;;;;;5074339;28;20085;-76
2024/03/21 09:47:14;;;;;;;31.02;23.75;;;;;;;;;;5056779;28;20138;-74
2024/03/21 09:49:40;;;;;;;29.63;22.48;;;;;;;;;;5073675;28;20032;-74
2024/03/21 09:52:08;;;;;;;28.67;21.98;;;;;;;;;;5061915;28;20107;-73
2024/03/21 09:54:35;;;;;;;25.50;22.25;;;;;;;;;;5075048;28;20024;-74
2024/03/21 09:57:01;;;;;;;28.13;24.50;;;;;;;;;;5090825;28;20117;-74
2024/03/21 09:59:27;;;;;;;30.45;23.27;;;;;;;;;;5070204;28;20047;-75
2024/03/21 10:01:53;;;;;;;31.58;26.02;;;;;;;;;;5089253;28;20016;-75
2024/03/21 10:04:19;;;;;;;30.77;26.27;;;;;;;;;;5076868;28;20040;-73
2024/03/21 10:06:45;;;;;;;35.65;25.25;;;;;;;;;;5063496;28;20028;-74
2024/03/21 10:09:12;;;;;;;38.13;26.70;;;;;;;;;;5055482;28;20021;-73
2024/03/21 10:11:39;;;;;;;41.17;28.00;;;;;;;;;;5093046;28;20065;-74
2024/03/21 10:14:05;;;;;;;32.75;25.70;;;;;;;;;;5066970;28;20131;-73
2024/03/21 10:16:32;;;;;;;37.42;28.48;;;;;;;;;;5067860;28;20039;-74
2024/03/21 10:19:00;;;;;;;38.63;28.88;;;;;;;;;;5091836;28;20078;-76
2024/03/21 10:21:27;;;;;;;36.33;26.73;;;;;;;;;;5054474;28;20486;-75
2024/03/21 10:24:03;;;;;;;37.03;25.90;;;;;;;;;;5074412;28;20475;-74
2024/03/21 10:26:29;;;;;;;42.40;27.02;;;;;;;;;;5054625;28;20115;-74
2024/03/21 10:28:55;;;;;;;38.55;28.75;;;;;;;;;;5078593;28;20020;-73
2024/03/21 10:31:22;;;;;;;34.85;25.80;;;;;;;;;;5071526;28;20034;-73
2024/03/21 10:33:49;;;;;;;31.98;23.33;;;;;;;;;;5054003;28;20483;-73
2024/03/21 10:36:15;;;;;;;32.53;23.33;;;;;;;;;;5054679;28;20031;-74
2024/03/21 10:38:41;;;;;;;29.98;21.23;;;;;;;;;;5075574;28;20079;-75
2024/03/21 10:41:15;;;;;;;22.52;17.60;;;;;;;;;;5068654;28;20055;-74
2024/03/21 10:43:43;;;;;;;19.23;12.95;;;;;;;;;;5072745;28;20021;-74
2024/03/21 10:46:11;;;;;;;16.23;11.43;;;;;;;;;;5062141;28;20032;-74
2024/03/21 10:48:37;;;;;;;17.65;10.50;;;;;;;;;;5072167;28;20063;-73
2024/03/21 10:51:18;;;;;;;15.52;11.32;;;;;;;;;;5054319;28;20029;-75
2024/03/21 10:53:54;;;;;;;14.30;10.07;;;;;;;;;;5081459;28;20031;-74
2024/03/21 10:56:24;;;;;;;13.60;9.18;;;;;;;;;;5073003;28;20032;-75
2024/03/21 10:58:55;;;;;;;13.48;9.50;;;;;;;;;;5055457;28;20063;-74
2024/03/21 11:01:21;;;;;;;12.05;9.93;;;;;;;;;;5091397;28;20028;-74
2024/03/21 11:03:51;;;;;;;14.32;8.57;;;;;;;;;;5073863;28;20406;-73
2024/03/21 11:06:19;;;;;;;10.98;7.60;;;;;;;;;;5073914;28;20020;-74
2024/03/21 11:08:53;;;;;;;11.90;7.68;;;;;;;;;;5072940;28;20033;-73
2024/03/21 11:11:20;;;;;;;10.70;7.72;;;;;;;;;;5054049;28;20028;-74
2024/03/21 11:13:46;;;;;;;18.50;8.73;;;;;;;;;;5084787;28;20039;-74
2024/03/21 11:16:12;;;;;;;10.65;7.53;;;;;;;;;;5092661;28;20031;-75
2024/03/21 11:18:38;;;;;;;8.50;6.75;;;;;;;;;;5076503;28;20029;-72
2024/03/21 11:21:05;;;;;;;7.07;5.65;;;;;;;;;;5067694;28;20043;-73
2024/03/21 11:23:31;;;;;;;7.13;4.57;;;;;;;;;;5094570;28;20027;-73
2024/03/21 11:25:57;;;;;;;7.03;3.83;;;;;;;;;;5074400;28;20024;-74
2024/03/21 11:28:23;;;;;;;6.15;4.47;;;;;;;;;;5062629;28;20046;-74
2024/03/21 11:30:49;;;;;;;9.80;6.00;;;;;;;;;;5091589;28;20095;-75
2024/03/21 11:33:15;;;;;;;6.47;5.68;;;;;;;;;;5092718;28;20070;-74
2024/03/21 11:35:42;;;;;;;8.07;5.05;;;;;;;;;;5078480;28;20025;-74
2024/03/21 11:38:08;;;;;;;9.05;5.55;;;;;;;;;;5058998;28;20538;-75
2024/03/21 11:40:34;;;;;;;9.63;6.28;;;;;;;;;;5092218;28;20051;-74
2024/03/21 11:43:05;;;;;;;10.18;7.25;;;;;;;;;;5060809;28;20035;-73
2024/03/21 11:45:31;;;;;;;11.63;7.10;;;;;;;;;;5073013;28;20473;-73
2024/03/21 11:48:11;;;;;;;10.90;7.15;;;;;;;;;;5054083;28;20040;-74
2024/03/21 11:50:38;;;;;;;8.60;5.85;;;;;;;;;;5069766;28;20316;-73
2024/03/21 11:53:05;;;;;;;6.60;4.90;;;;;;;;;;5057998;28;20029;-73
2024/03/21 11:55:31;;;;;;;6.47;5.38;;;;;;;;;;5076365;28;20066;-75
2024/03/21 11:57:57;;;;;;;12.38;6.72;;;;;;;;;;5056877;28;20510;-72
2024/03/21 12:00:23;;;;;;;7.65;5.80;;;;;;;;;;5071665;28;20055;-74
2024/03/21 12:02:50;;;;;;;10.07;6.60;;;;;;;;;;5075972;28;20029;-75
2024/03/21 12:05:17;;;;;;;7.72;6.35;;;;;;;;;;5058722;28;20085;-73
2024/03/21 12:07:43;;;;;;;10.10;6.45;;;;;;;;;;5080995;28;20020;-75
2024/03/21 12:10:12;;;;;;;12.20;6.95;;;;;;;;;;5079657;28;20025;-74
2024/03/21 12:12:39;;;;;;;9.93;7.78;;;;;;;;;;5078909;28;20021;-73
2024/03/21 12:15:06;;;;;;;8.07;6.40;;;;;;;;;;5080762;28;20112;-74
2024/03/21 12:17:33;;;;;;;9.23;7.07;;;;;;;;;;5058338;28;20028;-74
2024/03/21 12:19:59;;;;;;;9.95;7.18;;;;;;;;;;5064145;28;20024;-72
2024/03/21 12:22:26;;;;;;;8.85;6.82;;;;;;;;;;5085178;28;20027;-74
2024/03/21 12:24:52;;;;;;;12.52;8.00;;;;;;;;;;5061164;28;20032;-74
2024/03/21 12:27:18;;;;;;;9.45;6.55;;;;;;;;;;5059151;28;20029;-74
2024/03/21 12:29:46;;;;;;;8.65;7.38;;;;;;;;;;5060981;28;20020;-74
2024/03/21 12:32:13;;;;;;;7.93;6.22;;;;;;;;;;5077400;28;20536;-74
2024/03/21 12:34:39;;;;;;;11.95;7.15;;;;;;;;;;5060236;28;20183;-73
2024/03/21 12:37:08;;;;;;;9.75;6.25;;;;;;;;;;5060442;28;20021;-74
2024/03/21 12:39:34;;;;;;;7.72;6.75;;;;;;;;;;5076686;28;20063;-74
2024/03/21 12:42:02;;;;;;;6.97;6.28;;;;;;;;;;5060508;28;20023;-74
2024/03/21 12:44:29;;;;;;;10.82;5.65;;;;;;;;;;5058899;28;20104;-74
2024/03/21 12:46:55;;;;;;;6.50;5.90;;;;;;;;;;5058630;28;20021;-73
2024/03/21 12:49:21;;;;;;;7.03;5.55;;;;;;;;;;5075876;28;20035;-73
2024/03/21 12:51:47;;;;;;;7.50;6.00;;;;;;;;;;5071327;28;20033;-75
2024/03/21 12:54:13;;;;;;;8.00;6.85;;;;;;;;;;5060783;28;20032;-74
2024/03/21 12:56:39;;;;;;;6.93;5.78;;;;;;;;;;5080446;28;20050;-74
2024/03/21 12:59:05;;;;;;;6.90;6.20;;;;;;;;;;5074809;28;20118;-74
2024/03/21 13:01:31;;;;;;;6.85;6.18;;;;;;;;;;5080502;28;20031;-74
2024/03/21 13:03:57;;;;;;;7.35;6.32;;;;;;;;;;5054290;28;20312;-72
2024/03/21 13:06:24;;;;;;;8.73;5.57;;;;;;;;;;5068218;28;20430;-75
2024/03/21 13:08:51;;;;;;;6.95;5.75;;;;;;;;;;5055786;28;20024;-74
2024/03/21 13:11:17;;;;;;;6.22;5.13;;;;;;;;;;5055097;28;20077;-74
2024/03/21 13:13:44;;;;;;;7.00;5.65;;;;;;;;;;5055823;28;20028;-74
2024/03/21 13:16:10;;;;;;;7.10;5.82;;;;;;;;;;5073684;28;20032;-76
2024/03/21 13:18:36;;;;;;;7.25;5.70;;;;;;;;;;5081083;28;20050;-73
2024/03/21 13:21:02;;;;;;;5.72;5.13;;;;;;;;;;5060738;28;20073;-73
2024/03/21 13:23:28;;;;;;;6.13;5.50;;;;;;;;;;5074172;28;20479;-74
2024/03/21 13:25:54;;;;;;;7.03;5.68;;;;;;;;;;5075158;28;20017;-73
2024/03/21 13:28:20;;;;;;;8.77;6.65;;;;;;;;;;5081517;28;20035;-73
2024/03/21 13:30:47;;;;;;;7.78;6.40;;;;;;;;;;5055252;28;20085;-72
2024/03/21 13:33:13;;;;;;;7.55;6.70;;;;;;;;;;5072011;28;20024;-73
2024/03/21 13:35:39;;;;;;;6.53;5.93;;;;;;;;;;5054960;28;20572;-73
2024/03/21 13:38:05;;;;;;;7.30;6.60;;;;;;;;;;5073006;28;20107;-73
2024/03/21 13:40:33;;;;;;;6.88;6.18;;;;;;;;;;5073697;28;20324;-72
2024/03/21 13:42:59;;;;;;;11.45;5.80;;;;;;;;;;5074011;28;20023;-72
2024/03/21 13:45:25;;;;;;;11.73;9.02;;;;;;;;;;5062276;28;20491;-73
2024/03/21 13:47:52;;;;;;;9.95;6.95;;;;;;;;;;5072905;28;20078;-72
2024/03/21 13:50:18;;;;;;;10.10;8.48;;;;;;;;;;5055759;28;20398;-73
2024/03/21 13:52:44;;;;;;;8.30;7.45;;;;;;;;;;5073030;28;20372;-71
2024/03/21 13:55:11;;;;;;;9.48;7.35;;;;;;;;;;5072683;28;20029;-73
2024/03/21 13:57:37;;;;;;;11.38;7.30;;;;;;;;;;5064970;28;20020;-73
2024/03/21 14:00:04;;;;;;;10.57;8.45;;;;;;;;;;5055994;28;20016;-72
2024/03/21 14:02:30;;;;;;;9.43;8.45;;;;;;;;;;5067772;28;20371;-73
2024/03/21 14:04:57;;;;;;;9.93;8.93;;;;;;;;;;5068082;28;20021;-74
2024/03/21 14:07:23;;;;;;;10.77;8.52;;;;;;;;;;5076610;28;20365;-75
2024/03/21 14:09:49;;;;;;;12.32;9.00;;;;;;;;;;5077879;28;20467;-74
2024/03/21 14:12:15;;;;;;;14.13;9.55;;;;;;;;;;5053990;28;20049;-74
2024/03/21 14:14:41;;;;;;;10.80;8.77;;;;;;;;;;5055321;28;20535;-74
2024/03/21 14:17:07;;;;;;;11.50;9.85;;;;;;;;;;5073306;28;20087;-72
2024/03/21 14:19:33;;;;;;;15.73;9.30;;;;;;;;;;5057735;28;20032;-73
2024/03/21 14:22:01;;;;;;;11.25;9.10;;;;;;;;;;5051140;28;20139;-73
2024/03/21 14:24:27;;;;;;;16.05;8.98;;;;;;;;;;5056537;28;20081;-71
2024/03/21 14:26:53;;;;;;;18.20;8.07;;;;;;;;;;5071554;28;20410;-71
2024/03/21 14:29:19;;;;;;;12.68;9.05;;;;;;;;;;5053219;28;20062;-82